sensor_id;sensor_type;location;lat;lon;timestamp;pressure;altitude;pressure_sealevel;temperature;humidity
4528;BME280;62320;51.520;6.818;2023-03-20T00:08:48;101490.44;;;10.27;90.89
4528;BME280;62320;51.520;6.818;2023-03-20T00:18:50;101473.22;;;10.26;91.21
4528;BME280;62320;51.520;6.818;2023-03-20T00:28:51;101483.44;;;10.17;91.51
4528;BME280;62320;51.520;6.818;2023-03-20T00:38:53;101486.84;;;10.18;91.30
4528;BME280;62320;51.520;6.818;2023-03-20T00:48:56;101482.50;;;10.12;91.12
4528;BME280;62320;51.520;6.818;2023-03-20T00:58:59;101465.13;;;10.06;90.58
4528;BME280;62320;51.520;6.818;2023-03-20T01:09:02;101472.00;;;10.03;91.81
4528;BME280;62320;51.520;6.818;2023-03-20T01:19:04;101475.47;;;10.03;91.99
4528;BME280;62320;51.520;6.818;2023-03-20T01:29:17;101481.34;;;9.93;91.34
4528;BME280;62320;51.520;6.818;2023-03-20T01:39:20;101480.47;;;9.93;90.99
4528;BME280;62320;51.520;6.818;2023-03-20T01:59:43;101462.34;;;9.90;91.30
4528;BME280;62320;51.520;6.818;2023-03-20T02:09:47;101488.97;;;9.86;90.90
4528;BME280;62320;51.520;6.818;2023-03-20T02:40:20;101493.97;;;9.75;90.18
4528;BME280;62320;51.520;6.818;2023-03-20T02:50:33;101488.63;;;9.62;90.06
4528;BME280;62320;51.520;6.818;2023-03-20T03:00:40;101480.00;;;9.61;89.78
4528;BME280;62320;51.520;6.818;2023-03-20T03:10:54;101475.72;;;9.63;89.00
4528;BME280;62320;51.520;6.818;2023-03-20T03:21:01;101458.38;;;9.53;88.94
4528;BME280;62320;51.520;6.818;2023-03-20T03:31:06;101431.59;;;9.48;89.35
4528;BME280;62320;51.520;6.818;2023-03-20T03:41:22;101447.97;;;9.47;89.11
4528;BME280;62320;51.520;6.818;2023-03-20T03:51:30;101470.34;;;9.50;89.81
4528;BME280;62320;51.520;6.818;2023-03-20T04:01:35;101481.53;;;9.47;90.49
4528;BME280;62320;51.520;6.818;2023-03-20T04:11:36;101463.31;;;9.41;90.63
4528;BME280;62320;51.520;6.818;2023-03-20T04:21:38;101448.59;;;9.34;90.51
4528;BME280;62320;51.520;6.818;2023-03-20T04:31:39;101440.66;;;9.22;90.23
4528;BME280;62320;51.520;6.818;2023-03-20T04:41:41;101428.53;;;9.18;90.09
4528;BME280;62320;51.520;6.818;2023-03-20T04:51:43;101421.53;;;9.11;90.47
4528;BME280;62320;51.520;6.818;2023-03-20T05:01:44;101433.53;;;9.07;90.95
4528;BME280;62320;51.520;6.818;2023-03-20T05:11:46;101437.81;;;9.07;91.60
4528;BME280;62320;51.520;6.818;2023-03-20T05:21:47;101442.06;;;9.03;91.57
4528;BME280;62320;51.520;6.818;2023-03-20T05:31:49;101449.72;;;8.99;92.02
4528;BME280;62320;51.520;6.818;2023-03-20T05:41:50;101447.03;;;8.93;93.00
4528;BME280;62320;51.520;6.818;2023-03-20T05:51:52;101452.97;;;8.89;91.32
4528;BME280;62320;51.520;6.818;2023-03-20T06:01:53;101427.09;;;8.83;91.47
4528;BME280;62320;51.520;6.818;2023-03-20T06:11:55;101438.78;;;8.66;92.25
4528;BME280;62320;51.520;6.818;2023-03-20T06:21:56;101447.41;;;8.66;90.77
4528;BME280;62320;51.520;6.818;2023-03-20T06:31:58;101461.06;;;8.60;91.36
4528;BME280;62320;51.520;6.818;2023-03-20T06:41:59;101473.88;;;8.56;91.11
4528;BME280;62320;51.520;6.818;2023-03-20T06:52:01;101492.25;;;8.74;90.56
4528;BME280;62320;51.520;6.818;2023-03-20T07:02:03;101497.25;;;8.65;90.86
4528;BME280;62320;51.520;6.818;2023-03-20T07:12:10;101493.94;;;8.72;90.07
4528;BME280;62320;51.520;6.818;2023-03-20T07:22:21;101493.03;;;8.70;90.36
4528;BME280;62320;51.520;6.818;2023-03-20T07:32:23;101494.88;;;8.77;90.09
4528;BME280;62320;51.520;6.818;2023-03-20T07:42:24;101504.59;;;8.90;89.99
4528;BME280;62320;51.520;6.818;2023-03-20T07:52:26;101515.19;;;9.05;89.96
4528;BME280;62320;51.520;6.818;2023-03-20T08:02:28;101517.22;;;9.23;88.71
4528;BME280;62320;51.520;6.818;2023-03-20T08:12:30;101519.34;;;9.47;88.21
4528;BME280;62320;51.520;6.818;2023-03-20T08:22:31;101528.16;;;9.58;87.47
4528;BME280;62320;51.520;6.818;2023-03-20T08:32:33;101531.59;;;9.58;86.99
4528;BME280;62320;51.520;6.818;2023-03-20T08:42:34;101529.09;;;9.64;83.98
4528;BME280;62320;51.520;6.818;2023-03-20T08:52:36;101522.31;;;9.69;84.68
4528;BME280;62320;51.520;6.818;2023-03-20T09:02:37;101525.78;;;9.71;82.94
4528;BME280;62320;51.520;6.818;2023-03-20T09:12:39;101519.00;;;9.78;83.30
4528;BME280;62320;51.520;6.818;2023-03-20T09:22:40;101531.03;;;9.77;82.12
4528;BME280;62320;51.520;6.818;2023-03-20T09:32:44;101513.88;;;9.81;80.74
4528;BME280;62320;51.520;6.818;2023-03-20T09:43:01;101532.78;;;9.80;81.34
4528;BME280;62320;51.520;6.818;2023-03-20T09:53:41;101534.69;;;9.90;80.79
4528;BME280;62320;51.520;6.818;2023-03-20T10:03:55;101541.63;;;9.95;80.14
4528;BME280;62320;51.520;6.818;2023-03-20T10:14:08;101539.06;;;9.95;80.55
4528;BME280;62320;51.520;6.818;2023-03-20T10:24:25;101527.16;;;10.05;79.52
4528;BME280;62320;51.520;6.818;2023-03-20T10:34:57;101520.44;;;10.15;78.47
4528;BME280;62320;51.520;6.818;2023-03-20T10:45:06;101516.38;;;10.33;76.67
4528;BME280;62320;51.520;6.818;2023-03-20T10:55:13;101515.50;;;10.33;78.11
4528;BME280;62320;51.520;6.818;2023-03-20T11:05:23;101524.25;;;10.44;78.85
4528;BME280;62320;51.520;6.818;2023-03-20T11:15:30;101512.16;;;10.41;80.39
4528;BME280;62320;51.520;6.818;2023-03-20T11:25:36;101509.56;;;10.41;79.66
4528;BME280;62320;51.520;6.818;2023-03-20T11:35:44;101501.81;;;10.40;78.68
4528;BME280;62320;51.520;6.818;2023-03-20T11:45:49;101494.94;;;10.40;77.44
4528;BME280;62320;51.520;6.818;2023-03-20T11:56:01;101499.28;;;10.44;79.27
4528;BME280;62320;51.520;6.818;2023-03-20T12:06:12;101495.00;;;10.45;79.91
4528;BME280;62320;51.520;6.818;2023-03-20T12:16:17;101493.22;;;10.44;80.40
4528;BME280;62320;51.520;6.818;2023-03-20T12:26:41;101490.66;;;10.45;81.32
4528;BME280;62320;51.520;6.818;2023-03-20T12:36:47;101476.78;;;10.39;81.43
4528;BME280;62320;51.520;6.818;2023-03-20T12:47:26;101464.84;;;10.48;82.64
4528;BME280;62320;51.520;6.818;2023-03-20T12:57:43;101458.84;;;10.52;82.79
4528;BME280;62320;51.520;6.818;2023-03-20T13:18:26;101445.97;;;10.57;82.52
4528;BME280;62320;51.520;6.818;2023-03-20T13:38:39;101431.38;;;10.60;81.87
4528;BME280;62320;51.520;6.818;2023-03-20T13:48:44;101434.72;;;10.52;81.54
4528;BME280;62320;51.520;6.818;2023-03-20T14:09:42;101419.47;;;10.76;82.89
4528;BME280;62320;51.520;6.818;2023-03-20T14:19:45;101407.41;;;10.80;82.29
4528;BME280;62320;51.520;6.818;2023-03-20T14:29:47;101389.38;;;10.86;82.95
4528;BME280;62320;51.520;6.818;2023-03-20T14:40:19;101384.19;;;10.87;82.82
4528;BME280;62320;51.520;6.818;2023-03-20T15:01:03;101369.59;;;10.95;83.52
4528;BME280;62320;51.520;6.818;2023-03-20T15:11:07;101361.81;;;10.95;84.95
4528;BME280;62320;51.520;6.818;2023-03-20T15:31:32;101340.16;;;10.80;88.08
4528;BME280;62320;51.520;6.818;2023-03-20T15:41:36;101331.50;;;10.77;86.56
4528;BME280;62320;51.520;6.818;2023-03-20T15:51:38;101321.06;;;10.65;87.31
4528;BME280;62320;51.520;6.818;2023-03-20T16:01:39;101320.13;;;10.59;87.43
4528;BME280;62320;51.520;6.818;2023-03-20T16:11:44;101333.06;;;10.59;88.29
4528;BME280;62320;51.520;6.818;2023-03-20T16:21:58;101331.31;;;10.53;87.83
4528;BME280;62320;51.520;6.818;2023-03-20T16:32:06;101336.44;;;10.49;88.74
4528;BME280;62320;51.520;6.818;2023-03-20T16:42:28;101337.16;;;10.34;90.12
4528;BME280;62320;51.520;6.818;2023-03-20T16:52:35;101337.13;;;10.33;92.26
4528;BME280;62320;51.520;6.818;2023-03-20T17:02:38;101329.19;;;10.16;93.97
4528;BME280;62320;51.520;6.818;2023-03-20T17:12:43;101325.69;;;10.11;92.76
4528;BME280;62320;51.520;6.818;2023-03-20T17:22:45;101332.53;;;10.07;90.89
4528;BME280;62320;51.520;6.818;2023-03-20T17:32:47;101340.25;;;10.04;90.60
4528;BME280;62320;51.520;6.818;2023-03-20T17:42:48;101346.19;;;9.97;91.83
4528;BME280;62320;51.520;6.818;2023-03-20T17:52:50;101340.22;;;10.01;92.74
4528;BME280;62320;51.520;6.818;2023-03-20T18:02:52;101340.16;;;9.97;90.92
4528;BME280;62320;51.520;6.818;2023-03-20T18:12:54;101344.56;;;10.05;90.08
4528;BME280;62320;51.520;6.818;2023-03-20T18:22:55;101347.13;;;10.04;89.87
4528;BME280;62320;51.520;6.818;2023-03-20T18:32:57;101348.81;;;10.02;89.32
4528;BME280;62320;51.520;6.818;2023-03-20T18:42:58;101346.28;;;10.03;90.37
4528;BME280;62320;51.520;6.818;2023-03-20T18:53:02;101341.13;;;10.05;91.01
4528;BME280;62320;51.520;6.818;2023-03-20T19:03:04;101338.47;;;10.00;90.42
4528;BME280;62320;51.520;6.818;2023-03-20T19:13:06;101335.91;;;10.02;89.83
4528;BME280;62320;51.520;6.818;2023-03-20T19:23:10;101342.81;;;10.04;90.97
4528;BME280;62320;51.520;6.818;2023-03-20T19:33:12;101329.03;;;10.02;91.26
4528;BME280;62320;51.520;6.818;2023-03-20T19:43:13;101325.56;;;9.99;90.87
4528;BME280;62320;51.520;6.818;2023-03-20T19:53:17;101322.91;;;9.94;91.18
4528;BME280;62320;51.520;6.818;2023-03-20T20:03:22;101313.41;;;9.93;90.66
4528;BME280;62320;51.520;6.818;2023-03-20T20:13:27;101315.94;;;9.89;92.82
4528;BME280;62320;51.520;6.818;2023-03-20T20:23:28;101303.81;;;9.82;91.99
4528;BME280;62320;51.520;6.818;2023-03-20T20:33:30;101303.81;;;9.82;93.55
4528;BME280;62320;51.520;6.818;2023-03-20T20:43:34;101302.91;;;9.78;91.50
4528;BME280;62320;51.520;6.818;2023-03-20T20:53:56;101300.34;;;9.80;93.20
4528;BME280;62320;51.520;6.818;2023-03-20T21:03:57;101295.19;;;9.81;92.79
4528;BME280;62320;51.520;6.818;2023-03-20T21:13:59;101292.66;;;9.83;91.80
4528;BME280;62320;51.520;6.818;2023-03-20T21:24:01;101302.19;;;9.90;91.13
4528;BME280;62320;51.520;6.818;2023-03-20T21:34:02;101297.13;;;10.00;91.76
4528;BME280;62320;51.520;6.818;2023-03-20T21:44:07;101305.81;;;10.07;91.14
4528;BME280;62320;51.520;6.818;2023-03-20T21:54:08;101295.53;;;10.10;92.51
4528;BME280;62320;51.520;6.818;2023-03-20T22:04:30;101296.47;;;10.17;92.91
4528;BME280;62320;51.520;6.818;2023-03-20T22:14:52;101303.41;;;10.19;92.02
4528;BME280;62320;51.520;6.818;2023-03-20T22:25:14;101306.03;;;10.24;92.49
4528;BME280;62320;51.520;6.818;2023-03-20T22:35:40;101300.88;;;10.27;91.98
4528;BME280;62320;51.520;6.818;2023-03-20T22:46:02;101301.78;;;10.32;92.06
4528;BME280;62320;51.520;6.818;2023-03-20T22:56:24;101289.75;;;10.32;91.70
4528;BME280;62320;51.520;6.818;2023-03-20T23:06:26;101278.56;;;10.36;93.32
4528;BME280;62320;51.520;6.818;2023-03-20T23:16:27;101274.28;;;10.38;92.14
4528;BME280;62320;51.520;6.818;2023-03-20T23:26:29;101269.16;;;10.41;92.11
4528;BME280;62320;51.520;6.818;2023-03-20T23:36:30;101263.09;;;10.39;92.17
4528;BME280;62320;51.520;6.818;2023-03-20T23:46:37;101256.22;;;10.41;92.49
4528;BME280;62320;51.520;6.818;2023-03-20T23:56:39;101251.09;;;10.44;91.97
